Portada
METAR-TAF:

METAR-TAF

Aeroports :

Aeroport d'Essaouira-Mogador

Essaouira, Marroc

latitud: 31-31N, longitud: 009-47W, altitud: 15 m

Observació

L'informe es va fer fa 1 hora i 2 minuts, a les 17:00 UTC
Vent 4 kt del Nord-Oest
Temperatura 19°C
Humitat 68%
Pressió 1024 hPa
Visibilitat: 8000 m

METAR: GMMI 101700Z 32004KT 8000 NSC 19/13 Q1024 NOSIG

Hora: 18:02 (18:02 UTC)

Pronòstic

L'informe es va fer fa 1 hora i 2 minuts, a les 17:00 UTC
Pronòstic vàlid del 10 a les 18 UTC al 11 a les 24 UTC
Vent 4 kt del Nord-Oest
Visibilitat: 8000 m
Probabilitat 30%
l' 11 a les 03 UTC al 11 a les 07 UTC
Visibilitat: 4000 m
Núvols disperses a una alçada de 800 ft
boirina

TAF: GMMI 101700Z 1018/1124 32004KT 8000 NSC PROB30 1103/1107 4000 BR SCT008

Observacions i pronòstics meteorològics de més de 4000 aeroports (METAR i TAF).

Les estacions disponibles són els punts grocs i vermells al mapa.

Posi el ratolí al punt desitjat per veure el nom de l'estació.

Feu clic per veure les observacions i els pronòstics meteorològics.

Per canviar el mapa: feu clic els botons verds amb una creu de color negre per apropar; al botó verd amb un guió per allunyar la imatge; o en les fletxes verdes per a mapes adjacents.


METAR-TAF: